sensor_id;sensor_type;location;lat;lon;timestamp;P1;durP1;ratioP1;P2;durP2;ratioP2
20040;SDS011;10181;48.072;9.884;2024-01-27T00:01:15;1.53;;;1.43;;
20040;SDS011;10181;48.072;9.884;2024-01-27T00:03:41;3.23;;;1.60;;
20040;SDS011;10181;48.072;9.884;2024-01-27T00:06:06;1.40;;;1.30;;
20040;SDS011;10181;48.072;9.884;2024-01-27T00:08:32;2.13;;;1.63;;
20040;SDS011;10181;48.072;9.884;2024-01-27T00:10:57;2.47;;;1.57;;
20040;SDS011;10181;48.072;9.884;2024-01-27T00:13:23;1.70;;;1.60;;
20040;SDS011;10181;48.072;9.884;2024-01-27T00:15:49;2.10;;;2.00;;
20040;SDS011;10181;48.072;9.884;2024-01-27T00:18:15;1.43;;;1.33;;
20040;SDS011;10181;48.072;9.884;2024-01-27T00:20:41;1.50;;;1.40;;
20040;SDS011;10181;48.072;9.884;2024-01-27T00:23:07;1.73;;;1.33;;
20040;SDS011;10181;48.072;9.884;2024-01-27T00:25:33;1.77;;;1.30;;
20040;SDS011;10181;48.072;9.884;2024-01-27T00:27:58;1.33;;;1.23;;
20040;SDS011;10181;48.072;9.884;2024-01-27T00:30:24;1.20;;;1.20;;
20040;SDS011;10181;48.072;9.884;2024-01-27T00:32:51;1.30;;;1.30;;
20040;SDS011;10181;48.072;9.884;2024-01-27T00:35:16;1.60;;;1.50;;
20040;SDS011;10181;48.072;9.884;2024-01-27T00:37:42;1.70;;;1.60;;
20040;SDS011;10181;48.072;9.884;2024-01-27T00:40:08;1.43;;;1.43;;
20040;SDS011;10181;48.072;9.884;2024-01-27T00:42:35;1.60;;;1.50;;
20040;SDS011;10181;48.072;9.884;2024-01-27T00:45:00;1.73;;;1.63;;
20040;SDS011;10181;48.072;9.884;2024-01-27T00:47:26;2.10;;;1.50;;
20040;SDS011;10181;48.072;9.884;2024-01-27T00:49:51;1.90;;;1.80;;
20040;SDS011;10181;48.072;9.884;2024-01-27T00:52:19;1.63;;;1.53;;
20040;SDS011;10181;48.072;9.884;2024-01-27T00:54:44;1.60;;;1.50;;
20040;SDS011;10181;48.072;9.884;2024-01-27T00:57:10;1.93;;;1.83;;
20040;SDS011;10181;48.072;9.884;2024-01-27T00:59:36;2.40;;;1.60;;
20040;SDS011;10181;48.072;9.884;2024-01-27T01:02:01;1.57;;;1.50;;
20040;SDS011;10181;48.072;9.884;2024-01-27T01:04:27;1.53;;;1.40;;
20040;SDS011;10181;48.072;9.884;2024-01-27T01:06:53;1.53;;;1.53;;
20040;SDS011;10181;48.072;9.884;2024-01-27T01:09:18;1.63;;;1.60;;
20040;SDS011;10181;48.072;9.884;2024-01-27T01:11:44;1.90;;;1.70;;
20040;SDS011;10181;48.072;9.884;2024-01-27T01:14:10;1.73;;;1.63;;
20040;SDS011;10181;48.072;9.884;2024-01-27T01:16:35;1.03;;;1.03;;
20040;SDS011;10181;48.072;9.884;2024-01-27T01:19:01;1.50;;;1.43;;
20040;SDS011;10181;48.072;9.884;2024-01-27T01:21:26;1.30;;;1.20;;
20040;SDS011;10181;48.072;9.884;2024-01-27T01:23:53;1.30;;;1.30;;
20040;SDS011;10181;48.072;9.884;2024-01-27T01:26:19;1.50;;;1.40;;
20040;SDS011;10181;48.072;9.884;2024-01-27T01:28:44;1.37;;;1.37;;
20040;SDS011;10181;48.072;9.884;2024-01-27T01:31:10;1.10;;;1.10;;
20040;SDS011;10181;48.072;9.884;2024-01-27T01:33:35;1.50;;;1.50;;
20040;SDS011;10181;48.072;9.884;2024-01-27T01:36:01;1.60;;;1.50;;
20040;SDS011;10181;48.072;9.884;2024-01-27T01:38:26;1.07;;;1.07;;
20040;SDS011;10181;48.072;9.884;2024-01-27T01:40:52;1.83;;;1.63;;
20040;SDS011;10181;48.072;9.884;2024-01-27T01:43:17;3.20;;;1.80;;
20040;SDS011;10181;48.072;9.884;2024-01-27T01:45:43;1.57;;;1.47;;
20040;SDS011;10181;48.072;9.884;2024-01-27T01:48:09;1.53;;;1.47;;
20040;SDS011;10181;48.072;9.884;2024-01-27T01:50:34;2.37;;;1.50;;
20040;SDS011;10181;48.072;9.884;2024-01-27T01:53:00;1.57;;;1.47;;
20040;SDS011;10181;48.072;9.884;2024-01-27T01:55:26;1.67;;;1.57;;
20040;SDS011;10181;48.072;9.884;2024-01-27T01:57:52;1.40;;;1.30;;
20040;SDS011;10181;48.072;9.884;2024-01-27T02:00:18;1.20;;;1.20;;
20040;SDS011;10181;48.072;9.884;2024-01-27T02:02:44;1.20;;;1.20;;
20040;SDS011;10181;48.072;9.884;2024-01-27T02:05:10;1.37;;;1.27;;
20040;SDS011;10181;48.072;9.884;2024-01-27T02:07:39;1.43;;;1.43;;
20040;SDS011;10181;48.072;9.884;2024-01-27T02:10:05;1.57;;;1.47;;
20040;SDS011;10181;48.072;9.884;2024-01-27T02:12:41;1.27;;;1.27;;
20040;SDS011;10181;48.072;9.884;2024-01-27T02:15:11;1.67;;;1.57;;
20040;SDS011;10181;48.072;9.884;2024-01-27T02:17:38;1.30;;;1.27;;
20040;SDS011;10181;48.072;9.884;2024-01-27T02:20:05;1.43;;;1.43;;
20040;SDS011;10181;48.072;9.884;2024-01-27T02:22:31;1.50;;;1.40;;
20040;SDS011;10181;48.072;9.884;2024-01-27T02:24:58;1.47;;;1.43;;
20040;SDS011;10181;48.072;9.884;2024-01-27T02:27:23;1.57;;;1.47;;
20040;SDS011;10181;48.072;9.884;2024-01-27T02:29:49;1.67;;;1.57;;
20040;SDS011;10181;48.072;9.884;2024-01-27T02:32:15;1.80;;;1.70;;
20040;SDS011;10181;48.072;9.884;2024-01-27T02:34:40;1.90;;;1.80;;
20040;SDS011;10181;48.072;9.884;2024-01-27T02:37:06;2.00;;;1.90;;
20040;SDS011;10181;48.072;9.884;2024-01-27T02:39:32;1.27;;;1.27;;
20040;SDS011;10181;48.072;9.884;2024-01-27T02:41:57;1.90;;;1.80;;
20040;SDS011;10181;48.072;9.884;2024-01-27T02:44:23;1.90;;;1.80;;
20040;SDS011;10181;48.072;9.884;2024-01-27T02:46:48;2.93;;;1.53;;
20040;SDS011;10181;48.072;9.884;2024-01-27T02:49:14;2.37;;;1.70;;
20040;SDS011;10181;48.072;9.884;2024-01-27T02:51:39;3.67;;;2.00;;
20040;SDS011;10181;48.072;9.884;2024-01-27T02:54:05;2.10;;;1.90;;
20040;SDS011;10181;48.072;9.884;2024-01-27T02:56:31;2.10;;;2.00;;
20040;SDS011;10181;48.072;9.884;2024-01-27T02:58:56;2.37;;;2.17;;
20040;SDS011;10181;48.072;9.884;2024-01-27T03:01:22;1.80;;;1.70;;
20040;SDS011;10181;48.072;9.884;2024-01-27T03:03:48;2.63;;;1.77;;
20040;SDS011;10181;48.072;9.884;2024-01-27T03:06:13;1.77;;;1.67;;
20040;SDS011;10181;48.072;9.884;2024-01-27T03:08:39;2.03;;;1.93;;
20040;SDS011;10181;48.072;9.884;2024-01-27T03:11:04;1.60;;;1.50;;
20040;SDS011;10181;48.072;9.884;2024-01-27T03:13:30;2.10;;;1.93;;
20040;SDS011;10181;48.072;9.884;2024-01-27T03:15:56;2.20;;;2.10;;
20040;SDS011;10181;48.072;9.884;2024-01-27T03:18:21;2.10;;;1.90;;
20040;SDS011;10181;48.072;9.884;2024-01-27T03:20:47;2.20;;;1.77;;
20040;SDS011;10181;48.072;9.884;2024-01-27T03:23:13;1.30;;;1.30;;
20040;SDS011;10181;48.072;9.884;2024-01-27T03:25:38;1.60;;;1.50;;
20040;SDS011;10181;48.072;9.884;2024-01-27T03:28:04;1.30;;;1.30;;
20040;SDS011;10181;48.072;9.884;2024-01-27T03:30:30;1.70;;;1.60;;
20040;SDS011;10181;48.072;9.884;2024-01-27T03:32:55;1.53;;;1.43;;
20040;SDS011;10181;48.072;9.884;2024-01-27T03:35:21;1.93;;;1.83;;
20040;SDS011;10181;48.072;9.884;2024-01-27T03:37:47;1.83;;;1.73;;
20040;SDS011;10181;48.072;9.884;2024-01-27T03:40:12;2.00;;;1.90;;
20040;SDS011;10181;48.072;9.884;2024-01-27T03:42:38;1.80;;;1.70;;
20040;SDS011;10181;48.072;9.884;2024-01-27T03:45:04;1.73;;;1.63;;
20040;SDS011;10181;48.072;9.884;2024-01-27T03:47:30;1.73;;;1.63;;
20040;SDS011;10181;48.072;9.884;2024-01-27T03:49:55;1.63;;;1.63;;
20040;SDS011;10181;48.072;9.884;2024-01-27T03:52:21;1.43;;;1.43;;
20040;SDS011;10181;48.072;9.884;2024-01-27T03:54:46;1.70;;;1.60;;
20040;SDS011;10181;48.072;9.884;2024-01-27T03:57:12;1.73;;;1.43;;
20040;SDS011;10181;48.072;9.884;2024-01-27T03:59:39;1.90;;;1.80;;
20040;SDS011;10181;48.072;9.884;2024-01-27T04:02:06;3.43;;;1.53;;
20040;SDS011;10181;48.072;9.884;2024-01-27T04:04:31;2.10;;;2.00;;
20040;SDS011;10181;48.072;9.884;2024-01-27T04:06:57;4.10;;;1.70;;
20040;SDS011;10181;48.072;9.884;2024-01-27T04:09:23;2.27;;;1.70;;
20040;SDS011;10181;48.072;9.884;2024-01-27T04:11:49;1.80;;;1.70;;
20040;SDS011;10181;48.072;9.884;2024-01-27T04:14:14;1.90;;;1.80;;
20040;SDS011;10181;48.072;9.884;2024-01-27T04:16:40;1.60;;;1.60;;
20040;SDS011;10181;48.072;9.884;2024-01-27T04:19:06;1.87;;;1.77;;
20040;SDS011;10181;48.072;9.884;2024-01-27T04:21:31;1.57;;;1.57;;
20040;SDS011;10181;48.072;9.884;2024-01-27T04:23:57;2.10;;;2.00;;
20040;SDS011;10181;48.072;9.884;2024-01-27T04:26:22;2.20;;;2.10;;
20040;SDS011;10181;48.072;9.884;2024-01-27T04:28:48;1.40;;;1.40;;
20040;SDS011;10181;48.072;9.884;2024-01-27T04:31:14;1.60;;;1.50;;
20040;SDS011;10181;48.072;9.884;2024-01-27T04:33:39;1.60;;;1.50;;
20040;SDS011;10181;48.072;9.884;2024-01-27T04:36:05;1.43;;;1.40;;
20040;SDS011;10181;48.072;9.884;2024-01-27T04:38:32;2.27;;;2.07;;
20040;SDS011;10181;48.072;9.884;2024-01-27T04:40:57;1.37;;;1.37;;
20040;SDS011;10181;48.072;9.884;2024-01-27T04:43:23;2.00;;;1.90;;
20040;SDS011;10181;48.072;9.884;2024-01-27T04:45:48;1.90;;;1.80;;
20040;SDS011;10181;48.072;9.884;2024-01-27T04:48:14;1.80;;;1.70;;
20040;SDS011;10181;48.072;9.884;2024-01-27T04:50:40;1.70;;;1.60;;
20040;SDS011;10181;48.072;9.884;2024-01-27T04:53:06;1.87;;;1.77;;
20040;SDS011;10181;48.072;9.884;2024-01-27T04:55:31;1.80;;;1.70;;
20040;SDS011;10181;48.072;9.884;2024-01-27T04:57:57;1.87;;;1.77;;
20040;SDS011;10181;48.072;9.884;2024-01-27T05:00:23;1.73;;;1.70;;
20040;SDS011;10181;48.072;9.884;2024-01-27T05:02:51;1.47;;;1.40;;
20040;SDS011;10181;48.072;9.884;2024-01-27T05:05:17;2.90;;;1.97;;
20040;SDS011;10181;48.072;9.884;2024-01-27T05:07:43;1.90;;;1.80;;
20040;SDS011;10181;48.072;9.884;2024-01-27T05:10:12;1.70;;;1.60;;
20040;SDS011;10181;48.072;9.884;2024-01-27T05:12:38;1.73;;;1.60;;
20040;SDS011;10181;48.072;9.884;2024-01-27T05:15:03;1.90;;;1.80;;
20040;SDS011;10181;48.072;9.884;2024-01-27T05:17:29;1.90;;;1.80;;
20040;SDS011;10181;48.072;9.884;2024-01-27T05:19:55;1.70;;;1.60;;
20040;SDS011;10181;48.072;9.884;2024-01-27T05:22:22;3.63;;;2.10;;
20040;SDS011;10181;48.072;9.884;2024-01-27T05:24:47;1.57;;;1.47;;
20040;SDS011;10181;48.072;9.884;2024-01-27T05:27:13;1.60;;;1.50;;
20040;SDS011;10181;48.072;9.884;2024-01-27T05:29:39;1.87;;;1.77;;
20040;SDS011;10181;48.072;9.884;2024-01-27T05:32:05;2.30;;;2.20;;
20040;SDS011;10181;48.072;9.884;2024-01-27T05:34:30;2.23;;;2.03;;
20040;SDS011;10181;48.072;9.884;2024-01-27T05:36:56;2.80;;;2.60;;
20040;SDS011;10181;48.072;9.884;2024-01-27T05:39:22;2.37;;;2.17;;
20040;SDS011;10181;48.072;9.884;2024-01-27T05:41:47;2.37;;;2.23;;
20040;SDS011;10181;48.072;9.884;2024-01-27T05:44:14;2.07;;;1.97;;
20040;SDS011;10181;48.072;9.884;2024-01-27T05:46:39;1.83;;;1.77;;
20040;SDS011;10181;48.072;9.884;2024-01-27T05:49:05;1.70;;;1.60;;
20040;SDS011;10181;48.072;9.884;2024-01-27T05:51:30;2.20;;;2.10;;
20040;SDS011;10181;48.072;9.884;2024-01-27T05:53:56;2.33;;;2.23;;
20040;SDS011;10181;48.072;9.884;2024-01-27T05:56:22;1.63;;;1.60;;
20040;SDS011;10181;48.072;9.884;2024-01-27T05:58:48;2.10;;;2.00;;
20040;SDS011;10181;48.072;9.884;2024-01-27T06:01:14;3.80;;;2.60;;
20040;SDS011;10181;48.072;9.884;2024-01-27T06:03:42;1.90;;;1.80;;
20040;SDS011;10181;48.072;9.884;2024-01-27T06:06:08;1.67;;;1.57;;
20040;SDS011;10181;48.072;9.884;2024-01-27T06:08:34;2.20;;;2.10;;
20040;SDS011;10181;48.072;9.884;2024-01-27T06:11:00;2.60;;;2.40;;
20040;SDS011;10181;48.072;9.884;2024-01-27T06:13:27;2.27;;;2.17;;
20040;SDS011;10181;48.072;9.884;2024-01-27T06:15:53;1.67;;;1.60;;
20040;SDS011;10181;48.072;9.884;2024-01-27T06:18:18;2.03;;;1.93;;
20040;SDS011;10181;48.072;9.884;2024-01-27T06:20:44;2.07;;;1.97;;
20040;SDS011;10181;48.072;9.884;2024-01-27T06:23:09;1.80;;;1.70;;
20040;SDS011;10181;48.072;9.884;2024-01-27T06:25:35;1.50;;;1.50;;
20040;SDS011;10181;48.072;9.884;2024-01-27T06:28:01;1.37;;;1.37;;
20040;SDS011;10181;48.072;9.884;2024-01-27T06:30:26;1.97;;;1.87;;
20040;SDS011;10181;48.072;9.884;2024-01-27T06:32:52;5.93;;;3.83;;
20040;SDS011;10181;48.072;9.884;2024-01-27T06:35:17;5.33;;;4.17;;
20040;SDS011;10181;48.072;9.884;2024-01-27T06:37:43;7.90;;;4.30;;
20040;SDS011;10181;48.072;9.884;2024-01-27T06:40:09;5.13;;;3.90;;
20040;SDS011;10181;48.072;9.884;2024-01-27T06:42:35;8.93;;;6.03;;
20040;SDS011;10181;48.072;9.884;2024-01-27T06:45:01;8.20;;;5.07;;
20040;SDS011;10181;48.072;9.884;2024-01-27T06:47:26;8.73;;;5.00;;
20040;SDS011;10181;48.072;9.884;2024-01-27T06:49:52;5.93;;;4.77;;
20040;SDS011;10181;48.072;9.884;2024-01-27T06:52:18;6.47;;;4.47;;
20040;SDS011;10181;48.072;9.884;2024-01-27T06:54:43;5.83;;;4.37;;
20040;SDS011;10181;48.072;9.884;2024-01-27T06:57:19;4.73;;;3.93;;
20040;SDS011;10181;48.072;9.884;2024-01-27T06:59:48;5.30;;;3.07;;
20040;SDS011;10181;48.072;9.884;2024-01-27T07:02:18;2.93;;;2.60;;
20040;SDS011;10181;48.072;9.884;2024-01-27T07:04:47;2.90;;;2.70;;
20040;SDS011;10181;48.072;9.884;2024-01-27T07:07:12;2.90;;;2.50;;
20040;SDS011;10181;48.072;9.884;2024-01-27T07:09:38;3.23;;;2.93;;
20040;SDS011;10181;48.072;9.884;2024-01-27T07:12:04;2.77;;;2.57;;
20040;SDS011;10181;48.072;9.884;2024-01-27T07:14:30;2.77;;;2.57;;
20040;SDS011;10181;48.072;9.884;2024-01-27T07:16:56;3.03;;;2.27;;
20040;SDS011;10181;48.072;9.884;2024-01-27T07:19:21;2.20;;;2.00;;
20040;SDS011;10181;48.072;9.884;2024-01-27T07:21:47;2.10;;;2.00;;
20040;SDS011;10181;48.072;9.884;2024-01-27T07:24:13;3.80;;;2.70;;
20040;SDS011;10181;48.072;9.884;2024-01-27T07:26:38;2.40;;;2.20;;
20040;SDS011;10181;48.072;9.884;2024-01-27T07:29:04;2.27;;;2.03;;
20040;SDS011;10181;48.072;9.884;2024-01-27T07:31:29;2.27;;;2.13;;
20040;SDS011;10181;48.072;9.884;2024-01-27T07:33:56;2.23;;;2.13;;
20040;SDS011;10181;48.072;9.884;2024-01-27T07:36:21;2.70;;;2.50;;
20040;SDS011;10181;48.072;9.884;2024-01-27T07:38:47;2.80;;;2.60;;
20040;SDS011;10181;48.072;9.884;2024-01-27T07:41:13;2.40;;;2.30;;
20040;SDS011;10181;48.072;9.884;2024-01-27T07:43:38;5.33;;;3.77;;
20040;SDS011;10181;48.072;9.884;2024-01-27T07:46:04;3.00;;;2.80;;
20040;SDS011;10181;48.072;9.884;2024-01-27T07:48:30;2.97;;;2.67;;
20040;SDS011;10181;48.072;9.884;2024-01-27T07:50:55;3.53;;;3.00;;
20040;SDS011;10181;48.072;9.884;2024-01-27T07:53:21;2.80;;;2.60;;
20040;SDS011;10181;48.072;9.884;2024-01-27T07:55:47;3.97;;;2.80;;
20040;SDS011;10181;48.072;9.884;2024-01-27T07:58:13;2.60;;;2.40;;
20040;SDS011;10181;48.072;9.884;2024-01-27T08:00:38;2.27;;;2.17;;
20040;SDS011;10181;48.072;9.884;2024-01-27T08:03:04;2.60;;;2.40;;
20040;SDS011;10181;48.072;9.884;2024-01-27T08:05:30;2.63;;;2.50;;
20040;SDS011;10181;48.072;9.884;2024-01-27T08:07:55;2.83;;;2.50;;
20040;SDS011;10181;48.072;9.884;2024-01-27T08:10:21;2.03;;;1.93;;
20040;SDS011;10181;48.072;9.884;2024-01-27T08:12:47;2.60;;;2.40;;
20040;SDS011;10181;48.072;9.884;2024-01-27T08:15:13;3.57;;;3.27;;
20040;SDS011;10181;48.072;9.884;2024-01-27T08:17:39;3.47;;;3.17;;
20040;SDS011;10181;48.072;9.884;2024-01-27T08:20:04;3.80;;;3.50;;
20040;SDS011;10181;48.072;9.884;2024-01-27T08:22:30;4.47;;;4.10;;
20040;SDS011;10181;48.072;9.884;2024-01-27T08:24:56;5.43;;;4.93;;
20040;SDS011;10181;48.072;9.884;2024-01-27T08:27:22;6.77;;;5.83;;
20040;SDS011;10181;48.072;9.884;2024-01-27T08:29:47;5.67;;;5.17;;
20040;SDS011;10181;48.072;9.884;2024-01-27T08:32:13;6.03;;;5.53;;
20040;SDS011;10181;48.072;9.884;2024-01-27T08:34:38;6.73;;;6.07;;
20040;SDS011;10181;48.072;9.884;2024-01-27T08:37:13;6.40;;;5.90;;
20040;SDS011;10181;48.072;9.884;2024-01-27T08:39:44;6.40;;;5.90;;
20040;SDS011;10181;48.072;9.884;2024-01-27T08:42:11;5.47;;;5.03;;
20040;SDS011;10181;48.072;9.884;2024-01-27T08:44:37;6.23;;;4.83;;
20040;SDS011;10181;48.072;9.884;2024-01-27T08:47:03;5.13;;;4.73;;
20040;SDS011;10181;48.072;9.884;2024-01-27T08:49:29;5.73;;;5.23;;
20040;SDS011;10181;48.072;9.884;2024-01-27T08:51:55;5.30;;;4.90;;
20040;SDS011;10181;48.072;9.884;2024-01-27T08:54:20;5.60;;;4.87;;
20040;SDS011;10181;48.072;9.884;2024-01-27T08:56:46;5.50;;;5.07;;
20040;SDS011;10181;48.072;9.884;2024-01-27T08:59:12;5.77;;;5.13;;
20040;SDS011;10181;48.072;9.884;2024-01-27T09:01:37;6.77;;;5.97;;
20040;SDS011;10181;48.072;9.884;2024-01-27T09:04:03;6.90;;;6.20;;
20040;SDS011;10181;48.072;9.884;2024-01-27T09:06:29;5.17;;;4.77;;
20040;SDS011;10181;48.072;9.884;2024-01-27T09:08:54;6.70;;;5.53;;
20040;SDS011;10181;48.072;9.884;2024-01-27T09:11:20;5.83;;;5.30;;
20040;SDS011;10181;48.072;9.884;2024-01-27T09:13:48;5.80;;;5.20;;
20040;SDS011;10181;48.072;9.884;2024-01-27T09:16:16;9.30;;;5.30;;
20040;SDS011;10181;48.072;9.884;2024-01-27T09:18:42;5.83;;;4.70;;
20040;SDS011;10181;48.072;9.884;2024-01-27T09:21:08;4.63;;;3.97;;
20040;SDS011;10181;48.072;9.884;2024-01-27T09:23:34;3.63;;;3.30;;
20040;SDS011;10181;48.072;9.884;2024-01-27T09:26:00;3.87;;;3.33;;
20040;SDS011;10181;48.072;9.884;2024-01-27T09:28:25;4.57;;;3.73;;
20040;SDS011;10181;48.072;9.884;2024-01-27T09:30:51;3.87;;;3.47;;
20040;SDS011;10181;48.072;9.884;2024-01-27T09:33:17;3.83;;;3.33;;
20040;SDS011;10181;48.072;9.884;2024-01-27T09:35:44;3.93;;;3.60;;
20040;SDS011;10181;48.072;9.884;2024-01-27T09:38:11;3.77;;;3.43;;
20040;SDS011;10181;48.072;9.884;2024-01-27T09:40:39;3.90;;;3.60;;
20040;SDS011;10181;48.072;9.884;2024-01-27T09:43:05;3.50;;;3.20;;
20040;SDS011;10181;48.072;9.884;2024-01-27T09:45:31;4.60;;;3.50;;
20040;SDS011;10181;48.072;9.884;2024-01-27T09:47:57;6.03;;;3.90;;
20040;SDS011;10181;48.072;9.884;2024-01-27T09:50:24;6.40;;;3.53;;
20040;SDS011;10181;48.072;9.884;2024-01-27T09:52:50;4.63;;;3.90;;
20040;SDS011;10181;48.072;9.884;2024-01-27T09:55:16;3.73;;;3.43;;
20040;SDS011;10181;48.072;9.884;2024-01-27T09:57:41;3.50;;;3.20;;
20040;SDS011;10181;48.072;9.884;2024-01-27T10:00:09;3.47;;;3.17;;
20040;SDS011;10181;48.072;9.884;2024-01-27T10:02:38;5.57;;;3.67;;
20040;SDS011;10181;48.072;9.884;2024-01-27T10:05:06;4.03;;;3.70;;
20040;SDS011;10181;48.072;9.884;2024-01-27T10:07:33;3.27;;;3.00;;
20040;SDS011;10181;48.072;9.884;2024-01-27T10:09:59;5.27;;;3.50;;
20040;SDS011;10181;48.072;9.884;2024-01-27T10:12:26;5.20;;;3.57;;
20040;SDS011;10181;48.072;9.884;2024-01-27T10:14:53;4.77;;;3.60;;
20040;SDS011;10181;48.072;9.884;2024-01-27T10:17:22;3.70;;;3.37;;
20040;SDS011;10181;48.072;9.884;2024-01-27T10:20:01;3.67;;;3.03;;
20040;SDS011;10181;48.072;9.884;2024-01-27T10:22:28;3.40;;;3.10;;
20040;SDS011;10181;48.072;9.884;2024-01-27T10:24:54;3.03;;;2.80;;
20040;SDS011;10181;48.072;9.884;2024-01-27T10:27:20;5.27;;;3.00;;
20040;SDS011;10181;48.072;9.884;2024-01-27T10:29:55;5.67;;;3.23;;
20040;SDS011;10181;48.072;9.884;2024-01-27T10:32:21;3.43;;;3.13;;
20040;SDS011;10181;48.072;9.884;2024-01-27T10:35:05;4.37;;;3.97;;
20040;SDS011;10181;48.072;9.884;2024-01-27T10:37:35;3.33;;;2.97;;
20040;SDS011;10181;48.072;9.884;2024-01-27T10:40:05;4.50;;;3.23;;
20040;SDS011;10181;48.072;9.884;2024-01-27T10:42:37;3.00;;;2.80;;
20040;SDS011;10181;48.072;9.884;2024-01-27T10:45:03;4.90;;;4.03;;
20040;SDS011;10181;48.072;9.884;2024-01-27T10:47:31;4.47;;;3.70;;
20040;SDS011;10181;48.072;9.884;2024-01-27T10:49:58;5.70;;;3.53;;
20040;SDS011;10181;48.072;9.884;2024-01-27T10:52:25;3.20;;;3.00;;
20040;SDS011;10181;48.072;9.884;2024-01-27T10:54:55;3.27;;;3.07;;
20040;SDS011;10181;48.072;9.884;2024-01-27T10:57:28;2.80;;;2.57;;
20040;SDS011;10181;48.072;9.884;2024-01-27T10:59:55;4.00;;;3.60;;
20040;SDS011;10181;48.072;9.884;2024-01-27T11:02:23;5.17;;;3.10;;
20040;SDS011;10181;48.072;9.884;2024-01-27T11:04:49;5.77;;;3.90;;
20040;SDS011;10181;48.072;9.884;2024-01-27T11:07:18;4.57;;;3.43;;
20040;SDS011;10181;48.072;9.884;2024-01-27T11:09:47;4.20;;;3.60;;
20040;SDS011;10181;48.072;9.884;2024-01-27T11:12:15;4.17;;;3.37;;
20040;SDS011;10181;48.072;9.884;2024-01-27T11:14:41;3.43;;;3.23;;
20040;SDS011;10181;48.072;9.884;2024-01-27T11:17:07;3.27;;;3.03;;
20040;SDS011;10181;48.072;9.884;2024-01-27T11:19:32;3.87;;;2.70;;
20040;SDS011;10181;48.072;9.884;2024-01-27T11:22:00;3.50;;;3.20;;
20040;SDS011;10181;48.072;9.884;2024-01-27T11:24:27;3.70;;;3.40;;
20040;SDS011;10181;48.072;9.884;2024-01-27T11:27:05;3.87;;;2.80;;
20040;SDS011;10181;48.072;9.884;2024-01-27T11:29:31;3.67;;;2.70;;
20040;SDS011;10181;48.072;9.884;2024-01-27T11:32:01;2.10;;;2.00;;
20040;SDS011;10181;48.072;9.884;2024-01-27T11:34:27;2.97;;;2.20;;
20040;SDS011;10181;48.072;9.884;2024-01-27T11:36:53;2.30;;;2.13;;
20040;SDS011;10181;48.072;9.884;2024-01-27T11:39:26;2.87;;;2.53;;
20040;SDS011;10181;48.072;9.884;2024-01-27T11:41:52;3.70;;;3.40;;
20040;SDS011;10181;48.072;9.884;2024-01-27T11:44:18;5.60;;;3.10;;
20040;SDS011;10181;48.072;9.884;2024-01-27T11:46:45;4.07;;;2.60;;
20040;SDS011;10181;48.072;9.884;2024-01-27T11:49:17;2.63;;;2.53;;
20040;SDS011;10181;48.072;9.884;2024-01-27T11:51:43;1.90;;;1.80;;
20040;SDS011;10181;48.072;9.884;2024-01-27T11:54:09;3.67;;;2.43;;
20040;SDS011;10181;48.072;9.884;2024-01-27T11:56:35;4.37;;;2.40;;
20040;SDS011;10181;48.072;9.884;2024-01-27T11:59:00;2.33;;;2.20;;
20040;SDS011;10181;48.072;9.884;2024-01-27T12:01:26;2.97;;;2.10;;
20040;SDS011;10181;48.072;9.884;2024-01-27T12:03:52;2.60;;;2.40;;
20040;SDS011;10181;48.072;9.884;2024-01-27T12:06:17;2.23;;;2.03;;
20040;SDS011;10181;48.072;9.884;2024-01-27T12:08:43;2.33;;;1.90;;
20040;SDS011;10181;48.072;9.884;2024-01-27T12:11:12;2.00;;;1.80;;
20040;SDS011;10181;48.072;9.884;2024-01-27T12:13:40;2.77;;;2.53;;
20040;SDS011;10181;48.072;9.884;2024-01-27T12:16:06;2.20;;;2.00;;
20040;SDS011;10181;48.072;9.884;2024-01-27T12:18:33;2.33;;;1.90;;
20040;SDS011;10181;48.072;9.884;2024-01-27T12:21:00;2.40;;;1.70;;
20040;SDS011;10181;48.072;9.884;2024-01-27T12:23:25;2.10;;;1.47;;
20040;SDS011;10181;48.072;9.884;2024-01-27T12:25:54;4.27;;;1.70;;
20040;SDS011;10181;48.072;9.884;2024-01-27T12:28:21;2.33;;;1.25;;
20040;SDS011;10181;48.072;9.884;2024-01-27T12:30:48;1.58;;;1.40;;
20040;SDS011;10181;48.072;9.884;2024-01-27T12:33:17;1.30;;;1.20;;
20040;SDS011;10181;48.072;9.884;2024-01-27T12:35:47;1.30;;;1.20;;
20040;SDS011;10181;48.072;9.884;2024-01-27T12:38:14;2.63;;;1.60;;
20040;SDS011;10181;48.072;9.884;2024-01-27T12:40:43;1.80;;;1.70;;
20040;SDS011;10181;48.072;9.884;2024-01-27T12:43:09;3.72;;;1.58;;
20040;SDS011;10181;48.072;9.884;2024-01-27T12:45:34;2.08;;;1.98;;
20040;SDS011;10181;48.072;9.884;2024-01-27T12:48:00;2.15;;;1.65;;
20040;SDS011;10181;48.072;9.884;2024-01-27T12:50:27;1.80;;;1.70;;
20040;SDS011;10181;48.072;9.884;2024-01-27T12:52:52;2.13;;;1.75;;
20040;SDS011;10181;48.072;9.884;2024-01-27T12:55:19;3.30;;;1.80;;
20040;SDS011;10181;48.072;9.884;2024-01-27T12:57:46;1.73;;;1.63;;
20040;SDS011;10181;48.072;9.884;2024-01-27T13:00:12;3.42;;;1.70;;
20040;SDS011;10181;48.072;9.884;2024-01-27T13:02:39;1.80;;;1.70;;
20040;SDS011;10181;48.072;9.884;2024-01-27T13:05:04;1.70;;;1.60;;
20040;SDS011;10181;48.072;9.884;2024-01-27T13:07:30;3.53;;;1.60;;
20040;SDS011;10181;48.072;9.884;2024-01-27T13:09:56;2.22;;;1.40;;
20040;SDS011;10181;48.072;9.884;2024-01-27T13:12:22;1.65;;;1.50;;
20040;SDS011;10181;48.072;9.884;2024-01-27T13:14:47;2.17;;;1.55;;
20040;SDS011;10181;48.072;9.884;2024-01-27T13:17:14;1.85;;;1.55;;
20040;SDS011;10181;48.072;9.884;2024-01-27T13:19:40;1.30;;;1.30;;
20040;SDS011;10181;48.072;9.884;2024-01-27T13:22:06;2.00;;;1.83;;
20040;SDS011;10181;48.072;9.884;2024-01-27T13:24:32;2.38;;;1.45;;
20040;SDS011;10181;48.072;9.884;2024-01-27T13:26:58;1.20;;;1.10;;
20040;SDS011;10181;48.072;9.884;2024-01-27T13:29:23;1.40;;;1.33;;
20040;SDS011;10181;48.072;9.884;2024-01-27T13:31:49;3.97;;;1.80;;
20040;SDS011;10181;48.072;9.884;2024-01-27T13:34:15;1.50;;;1.40;;
20040;SDS011;10181;48.072;9.884;2024-01-27T13:36:41;1.50;;;1.40;;
20040;SDS011;10181;48.072;9.884;2024-01-27T13:39:06;1.80;;;1.70;;
20040;SDS011;10181;48.072;9.884;2024-01-27T13:41:32;2.93;;;1.43;;
20040;SDS011;10181;48.072;9.884;2024-01-27T13:43:57;1.60;;;1.50;;
20040;SDS011;10181;48.072;9.884;2024-01-27T13:46:23;1.60;;;1.50;;
20040;SDS011;10181;48.072;9.884;2024-01-27T13:48:49;1.50;;;1.50;;
20040;SDS011;10181;48.072;9.884;2024-01-27T13:51:14;1.60;;;1.50;;
20040;SDS011;10181;48.072;9.884;2024-01-27T13:53:40;1.50;;;1.40;;
20040;SDS011;10181;48.072;9.884;2024-01-27T13:56:06;2.43;;;1.17;;
20040;SDS011;10181;48.072;9.884;2024-01-27T13:58:32;1.60;;;1.47;;
20040;SDS011;10181;48.072;9.884;2024-01-27T14:00:58;3.30;;;1.40;;
20040;SDS011;10181;48.072;9.884;2024-01-27T14:03:23;1.23;;;1.23;;
20040;SDS011;10181;48.072;9.884;2024-01-27T14:05:49;2.00;;;1.50;;
20040;SDS011;10181;48.072;9.884;2024-01-27T14:08:15;2.53;;;1.40;;
20040;SDS011;10181;48.072;9.884;2024-01-27T14:10:42;1.30;;;1.20;;
20040;SDS011;10181;48.072;9.884;2024-01-27T14:13:08;2.50;;;1.67;;
20040;SDS011;10181;48.072;9.884;2024-01-27T14:15:35;1.97;;;1.70;;
20040;SDS011;10181;48.072;9.884;2024-01-27T14:18:01;1.50;;;1.40;;
20040;SDS011;10181;48.072;9.884;2024-01-27T14:20:29;2.50;;;1.40;;
20040;SDS011;10181;48.072;9.884;2024-01-27T14:22:55;2.60;;;1.90;;
20040;SDS011;10181;48.072;9.884;2024-01-27T14:25:22;1.70;;;1.60;;
20040;SDS011;10181;48.072;9.884;2024-01-27T14:27:48;1.67;;;1.40;;
20040;SDS011;10181;48.072;9.884;2024-01-27T14:30:14;2.23;;;1.90;;
20040;SDS011;10181;48.072;9.884;2024-01-27T14:32:39;1.80;;;1.70;;
20040;SDS011;10181;48.072;9.884;2024-01-27T14:35:05;1.60;;;1.50;;
20040;SDS011;10181;48.072;9.884;2024-01-27T14:37:31;1.73;;;1.60;;
20040;SDS011;10181;48.072;9.884;2024-01-27T14:39:57;1.83;;;1.73;;
20040;SDS011;10181;48.072;9.884;2024-01-27T14:42:22;1.37;;;1.27;;